Akhiok, Alaska
Current Conditions -  °F | °C
As of 3:53 PM on Saturday 20 Dec 2014 (Local Time) from PADQ Reporting Station
Overcast Overcast  
Wind Chill:   Ceiling: 1800
Heat Index:   Visibility: 10mi
Dew Point:   Wind: 6mph
Humidity: 93%   Direction: 310°NW
Pressure: 28.8"   Gusts: NA
Location:  57.454°N, 153.546°W
Report Text: PADQ 210053Z 31005KT 10SM SCT008 BKN018 OVC025 04/03 A2880 RMK AO2 SLP754 T00440033
Loading
Personal Weather Stations






























Interactive Weather Map New forecast layout! Learn more

10-Day Weather Forecast

Advertisements
Track Severe Weather on mobile